This is the latest recevied weather packets stored in our database for station/object KI6SYE. If no packets are shown the sender has not sent any weather packets the latest 1 day(s).
| Time | Temp. | Humidity | Pressure | Rain* | Wind** | Luminosity | Snow |
|---|---|---|---|---|---|---|---|
| 1778086930 | 17.78° C | 76% | 1018.1 hPa | 0 mm | - | 364 W/m² | - |
| 1778086022 | 20° C | 68% | 1017.9 hPa | 0 mm | - | 456 W/m² | - |
| 1778084807 | 19.44° C | 68% | 1018.3 hPa | 0 mm | - | 525 W/m² | - |
| 1778083898 | 19.44° C | 66% | 1018.3 hPa | 0 mm | - | 474 W/m² | - |
| 1778083596 | 19.44° C | 70% | 1018.3 hPa | 0 mm | - | 459 W/m² | - |
| 1778081551 | 17.78° C | 76% | 1018.1 hPa | 0 mm | - | 344 W/m² | - |
| 1778080644 | 16.67° C | 79% | 1018.6 hPa | 0 mm | - | 292 W/m² | - |
| 1778080340 | 16.67° C | 78% | 1018.3 hPa | 0 mm | - | 276 W/m² | - |
| 1778078825 | 15.56° C | 82% | 1018.1 hPa | 0 mm | - | 192 W/m² | - |
| 1778077010 | 15° C | 83% | 1018.2 hPa | 0 mm | - | 84 W/m² | - |
| 1778075496 | 12.78° C | 89% | 1017.9 hPa | 0 mm | - | 31 W/m² | - |
| 1778074888 | 12.78° C | 89% | 1017.9 hPa | 0 mm | - | 27 W/m² | - |
| 1778074586 | 12.78° C | 89% | 1017.9 hPa | 0 mm | - | 22 W/m² | - |
| 1778072465 | 12.78° C | 90% | 1017.6 hPa | 0 mm | - | 3 W/m² | - |
| 1778071558 | 12.78° C | 90% | 1017.4 hPa | 0 mm | - | 0 W/m² | - |
| 1778069743 | 12.22° C | 91% | 1017.1 hPa | 0 mm | - | 0 W/m² | - |
| 1778069137 | 12.78° C | 91% | 1017.1 hPa | 0 mm | - | 0 W/m² | - |
| 1778068834 | 12.78° C | 91% | 1017.2 hPa | 0 mm | - | 0 W/m² | - |
| 1778068230 | 12.78° C | 92% | 1017.2 hPa | 0 mm | - | 0 W/m² | - |
| 1778067927 | 12.78° C | 92% | 1017.3 hPa | 0 mm | - | 0 W/m² | - |
| 1778067323 | 12.78° C | 93% | 1017.1 hPa | 0 mm | - | 0 W/m² | - |
| 1778066716 | 12.22° C | 93% | 1017 hPa | 0 mm | - | 0 W/m² | - |
| 1778066414 | 12.22° C | 93% | 1016.9 hPa | 0 mm | - | 0 W/m² | - |
| 1778065809 | 12.22° C | 92% | 1017 hPa | 0 mm | - | 0 W/m² | - |
| 1778064900 | 12.78° C | 92% | 1017.1 hPa | 0 mm | - | 0 W/m² | - |
* Rain latest hour (hover to see other rain measurements)
** Current wind speed in m/s (hover to see current wind gust speed)